Time;durP1;ratioP1;P1;durP2;ratioP2;P2;SDS_P1;SDS_P2;PMS_P1;PMS_P2;Temp;Humidity;BMP_temperature;BMP_pressure;BME280_temperature;BME280_humidity;BME280_pressure;Samples;Min_cycle;Max_cycle;Signal;HPM_P1;HPM_P2
2021/12/12 00:01:12;;;;;;;10.50;7.47;;;2.70;92.80;;;;;;5029554;28;20210;-85
2021/12/12 00:03:46;;;;;;;9.40;7.57;;;2.80;92.70;;;;;;5024712;28;20225;-82
2021/12/12 00:06:17;;;;;;;8.57;7.30;;;2.70;92.80;;;;;;5018327;28;20657;-89
2021/12/12 00:08:48;;;;;;;11.10;7.57;;;2.70;93.10;;;;;;5034048;28;20226;-84
2021/12/12 00:11:18;;;;;;;10.30;7.53;;;2.70;93.30;;;;;;5027086;28;20286;-83
2021/12/12 00:13:50;;;;;;;8.60;6.90;;;2.70;93.40;;;;;;5024700;28;20230;-82
2021/12/12 00:16:18;;;;;;;8.60;7.43;;;2.80;93.40;;;;;;5025408;28;20210;-85
2021/12/12 00:18:45;;;;;;;10.23;7.40;;;2.80;93.60;;;;;;5031803;28;20222;-83
2021/12/12 00:21:15;;;;;;;10.63;7.87;;;2.80;93.60;;;;;;5028363;28;20205;-85
2021/12/12 00:23:45;;;;;;;9.17;7.57;;;2.70;93.80;;;;;;5027474;28;20252;-85
2021/12/12 00:26:12;;;;;;;9.70;7.70;;;2.80;94.00;;;;;;5031985;28;20193;-84
2021/12/12 00:28:39;;;;;;;9.13;7.20;;;2.80;94.10;;;;;;5030707;28;20234;-83
2021/12/12 00:31:11;;;;;;;10.63;7.33;;;2.80;94.00;;;;;;5027587;28;20205;-87
2021/12/12 00:33:41;;;;;;;10.30;7.30;;;2.90;93.80;;;;;;5037181;28;20233;-82
2021/12/12 00:36:10;;;;;;;9.43;7.13;;;3.00;93.80;;;;;;5028156;28;20718;-87
2021/12/12 00:38:37;;;;;;;8.80;6.50;;;3.00;93.60;;;;;;5028418;28;20609;-83
2021/12/12 00:41:10;;;;;;;8.50;6.67;;;3.00;93.70;;;;;;5040772;28;20205;-84
2021/12/12 00:43:42;;;;;;;9.80;6.90;;;2.90;93.70;;;;;;5045773;28;20242;-84
2021/12/12 00:46:11;;;;;;;9.03;6.83;;;3.00;94.00;;;;;;5017387;28;20214;-84
2021/12/12 00:48:40;;;;;;;8.87;7.27;;;3.00;93.80;;;;;;5032026;28;20230;-82
2021/12/12 00:51:10;;;;;;;8.73;6.73;;;3.00;93.50;;;;;;5024283;28;20677;-83
2021/12/12 00:53:38;;;;;;;9.17;6.93;;;3.00;93.70;;;;;;5028712;28;20239;-82
2021/12/12 00:56:06;;;;;;;8.20;6.30;;;3.00;93.80;;;;;;5014749;28;20660;-83
2021/12/12 00:58:33;;;;;;;8.97;7.10;;;3.00;93.90;;;;;;5028459;28;20242;-83
2021/12/12 01:01:04;;;;;;;10.10;6.60;;;3.00;93.90;;;;;;5020381;28;20576;-82
2021/12/12 01:03:39;;;;;;;11.07;7.87;;;2.90;94.40;;;;;;5029589;28;20241;-83
2021/12/12 01:06:08;;;;;;;10.23;7.47;;;2.90;94.30;;;;;;5023895;28;20571;-83
2021/12/12 01:08:36;;;;;;;10.70;7.90;;;2.90;94.60;;;;;;5031126;28;20234;-84
2021/12/12 01:11:07;;;;;;;11.07;8.73;;;3.00;94.60;;;;;;5026942;28;20293;-82
2021/12/12 01:13:34;;;;;;;9.80;7.90;;;3.00;94.60;;;;;;5032482;28;20234;-84
2021/12/12 01:16:06;;;;;;;12.97;8.83;;;3.00;94.60;;;;;;5036536;28;20203;-82
2021/12/12 01:18:39;;;;;;;10.40;8.70;;;2.90;94.60;;;;;;5027800;28;20249;-83
2021/12/12 01:21:12;;;;;;;11.03;8.30;;;2.80;94.60;;;;;;5028137;28;20198;-82
2021/12/12 01:23:43;;;;;;;9.63;7.77;;;2.70;95.10;;;;;;5027861;28;20257;-83
2021/12/12 01:26:10;;;;;;;10.17;7.43;;;2.70;95.50;;;;;;5024358;28;20205;-82
2021/12/12 01:28:42;;;;;;;8.27;7.30;;;2.70;95.60;;;;;;5018457;28;20257;-83
2021/12/12 01:31:13;;;;;;;8.73;6.93;;;2.70;95.60;;;;;;5028310;28;20191;-85
2021/12/12 01:33:42;;;;;;;8.93;7.30;;;2.80;95.50;;;;;;5035684;28;20233;-90
2021/12/12 01:36:22;;;;;;;9.13;7.37;;;2.90;95.60;;;;;;5043893;28;20209;-82
2021/12/12 01:38:53;;;;;;;8.80;7.03;;;2.90;95.40;;;;;;5046723;28;20277;-84
2021/12/12 01:41:26;;;;;;;9.50;7.07;;;3.00;95.30;;;;;;5039155;28;20250;-82
2021/12/12 01:43:58;;;;;;;10.17;8.03;;;3.00;95.30;;;;;;5021382;28;20229;-83
2021/12/12 01:46:30;;;;;;;9.67;8.00;;;3.00;95.30;;;;;;5031517;28;20202;-83
2021/12/12 01:49:01;;;;;;;10.67;8.10;;;2.90;95.30;;;;;;5029856;28;20237;-83
2021/12/12 01:51:29;;;;;;;10.17;8.03;;;2.90;95.40;;;;;;5028081;28;20809;-82
2021/12/12 01:53:58;;;;;;;10.47;8.33;;;3.00;95.50;;;;;;5021031;28;20702;-83
2021/12/12 01:56:29;;;;;;;9.93;8.60;;;2.90;95.60;;;;;;5031602;28;20203;-84
2021/12/12 01:59:01;;;;;;;9.63;7.80;;;2.90;95.50;;;;;;5029027;28;20223;-83
2021/12/12 02:01:31;;;;;;;11.23;7.80;;;2.90;95.60;;;;;;5040026;28;20203;-82
2021/12/12 02:04:05;;;;;;;10.67;8.20;;;2.90;95.60;;;;;;5015597;28;20235;-86
2021/12/12 02:06:33;;;;;;;10.43;8.03;;;3.00;95.30;;;;;;5019713;28;20216;-83
2021/12/12 02:09:01;;;;;;;12.03;8.40;;;2.90;95.30;;;;;;5039163;28;20231;-82
2021/12/12 02:11:32;;;;;;;12.10;8.17;;;2.90;95.50;;;;;;5023233;28;20218;-82
2021/12/12 02:14:08;;;;;;;10.47;8.33;;;2.90;95.30;;;;;;5029374;28;20236;-84
2021/12/12 02:16:38;;;;;;;10.80;8.33;;;3.00;95.20;;;;;;5033873;28;20190;-83
2021/12/12 02:19:08;;;;;;;10.73;8.63;;;3.00;95.40;;;;;;5033968;28;20689;-82
2021/12/12 02:21:54;;;;;;;10.70;8.03;;;2.90;95.00;;;;;;5020245;28;20666;-82
2021/12/12 02:35:43;;;;;;;10.60;8.53;;;2.90;95.30;;;;;;5027166;28;20278;-84
2021/12/12 02:38:13;;;;;;;12.13;8.20;;;3.00;95.60;;;;;;5014981;28;20262;-83
2021/12/12 02:40:44;;;;;;;9.77;7.83;;;3.10;95.00;;;;;;5015846;28;20207;-82
2021/12/12 02:43:13;;;;;;;10.43;8.20;;;3.10;94.80;;;;;;5030664;28;20238;-85
2021/12/12 02:45:42;;;;;;;11.67;8.50;;;3.10;94.70;;;;;;5029843;28;20657;-83
2021/12/12 02:48:16;;;;;;;10.27;8.00;;;3.20;94.70;;;;;;5011636;28;20233;-83
2021/12/12 02:50:47;;;;;;;11.40;8.40;;;3.20;94.70;;;;;;5011993;28;20282;-82
2021/12/12 02:53:18;;;;;;;11.20;8.40;;;3.10;94.70;;;;;;5024355;28;20240;-82
2021/12/12 02:55:50;;;;;;;13.30;9.17;;;2.90;94.60;;;;;;5015579;28;20210;-82
2021/12/12 02:58:20;;;;;;;12.20;9.33;;;2.80;95.40;;;;;;5030820;28;20230;-84
2021/12/12 03:00:53;;;;;;;11.33;9.10;;;2.80;95.70;;;;;;5029754;28;20214;-83
2021/12/12 03:03:20;;;;;;;13.83;9.00;;;2.70;95.90;;;;;;5011494;28;20229;-82
2021/12/12 03:05:50;;;;;;;11.63;8.63;;;2.90;95.90;;;;;;5026853;28;20211;-84
2021/12/12 03:08:17;;;;;;;10.93;8.43;;;2.90;95.80;;;;;;5021012;28;20230;-83
2021/12/12 03:10:49;;;;;;;10.50;8.47;;;2.90;95.60;;;;;;5023630;28;20559;-83
2021/12/12 03:13:18;;;;;;;9.07;7.73;;;2.90;95.40;;;;;;5026458;28;20604;-82
2021/12/12 03:15:46;;;;;;;10.90;8.70;;;3.00;95.20;;;;;;5037521;28;20199;-82
2021/12/12 03:18:16;;;;;;;10.37;8.17;;;3.10;95.20;;;;;;5036162;28;20588;-85
2021/12/12 03:20:46;;;;;;;10.90;8.70;;;3.00;95.00;;;;;;5031669;28;20207;-88
2021/12/12 03:23:19;;;;;;;12.10;8.43;;;3.00;95.30;;;;;;5030314;28;20280;-83
2021/12/12 03:25:50;;;;;;;11.03;8.50;;;3.10;94.80;;;;;;5016475;28;20286;-82
2021/12/12 03:28:20;;;;;;;11.67;8.23;;;3.10;94.70;;;;;;5023902;28;20264;-82
2021/12/12 03:30:48;;;;;;;10.40;8.07;;;3.20;94.70;;;;;;5029590;28;20207;-82
2021/12/12 03:33:15;;;;;;;11.37;8.37;;;3.10;94.70;;;;;;5018790;28;20239;-82
2021/12/12 03:35:46;;;;;;;11.47;8.47;;;3.10;94.70;;;;;;5028467;28;20687;-83
2021/12/12 03:38:14;;;;;;;10.40;8.27;;;3.00;94.70;;;;;;5017989;28;20227;-82
2021/12/12 03:40:42;;;;;;;11.20;8.10;;;3.00;94.90;;;;;;5023849;28;20206;-83
2021/12/12 03:43:12;;;;;;;10.13;7.73;;;3.00;95.00;;;;;;5022270;28;20253;-83
2021/12/12 03:45:40;;;;;;;9.60;7.73;;;3.00;95.00;;;;;;5024178;28;20195;-83
2021/12/12 03:48:12;;;;;;;10.73;7.70;;;3.10;94.70;;;;;;5017287;28;20224;-83
2021/12/12 03:50:44;;;;;;;10.10;8.10;;;3.20;94.70;;;;;;5029056;28;20217;-83
2021/12/12 03:53:12;;;;;;;10.60;8.10;;;3.20;94.70;;;;;;5032940;28;20242;-83
2021/12/12 03:55:41;;;;;;;9.50;7.43;;;3.20;94.70;;;;;;5031999;28;20199;-82
2021/12/12 03:58:10;;;;;;;10.30;7.30;;;3.20;94.70;;;;;;5032512;28;20227;-82
2021/12/12 04:00:41;;;;;;;11.23;7.77;;;3.20;94.40;;;;;;5038920;28;20737;-85
2021/12/12 04:03:08;;;;;;;9.37;7.30;;;3.30;94.40;;;;;;5038621;28;20724;-82
2021/12/12 04:05:36;;;;;;;9.67;7.67;;;3.20;94.30;;;;;;5024988;28;20659;-83
2021/12/12 04:08:04;;;;;;;10.97;8.03;;;3.20;94.60;;;;;;5027479;28;20242;-83
2021/12/12 04:10:31;;;;;;;9.67;7.47;;;3.10;94.70;;;;;;5034583;28;20213;-82
2021/12/12 04:12:59;;;;;;;11.30;7.57;;;3.20;94.70;;;;;;5028550;28;20244;-83
2021/12/12 04:15:27;;;;;;;9.60;7.40;;;3.20;94.60;;;;;;5031473;28;20199;-83
2021/12/12 04:17:54;;;;;;;10.63;8.10;;;3.40;94.30;;;;;;5029756;28;20230;-83
2021/12/12 04:20:25;;;;;;;10.33;8.07;;;3.40;94.20;;;;;;5029589;28;20206;-84
2021/12/12 04:22:52;;;;;;;10.27;7.80;;;3.30;94.10;;;;;;5017704;28;20241;-83
2021/12/12 04:25:19;;;;;;;10.30;7.67;;;3.20;94.60;;;;;;5043267;28;20212;-83
2021/12/12 04:27:46;;;;;;;10.03;7.70;;;3.30;94.60;;;;;;5039113;28;20952;-83
2021/12/12 04:30:15;;;;;;;9.53;7.53;;;3.40;94.00;;;;;;5016841;28;20693;-83
2021/12/12 04:32:45;;;;;;;10.80;8.07;;;3.40;94.00;;;;;;5013869;28;20211;-83
2021/12/12 04:35:14;;;;;;;9.80;7.70;;;3.40;94.00;;;;;;5020147;28;20199;-84
2021/12/12 04:37:44;;;;;;;9.77;7.57;;;3.40;94.00;;;;;;5030782;28;20203;-82
2021/12/12 04:40:16;;;;;;;10.00;7.93;;;3.50;93.70;;;;;;5032391;28;20234;-82
2021/12/12 04:42:45;;;;;;;9.40;7.30;;;3.50;93.70;;;;;;5033442;28;20622;-82
2021/12/12 04:45:23;;;;;;;9.07;7.33;;;3.50;93.60;;;;;;5021105;28;20222;-83
2021/12/12 04:50:53;;;;;;;10.23;7.77;;;3.50;93.80;;;;;;5033602;28;20197;-83
2021/12/12 04:53:26;;;;;;;11.03;7.90;;;3.50;93.90;;;;;;5032790;28;20226;-86
2021/12/12 04:55:57;;;;;;;10.63;7.53;;;3.40;94.20;;;;;;5020280;28;20664;-84
2021/12/12 04:58:33;;;;;;;10.07;7.40;;;3.50;94.20;;;;;;5032872;28;20222;-83
2021/12/12 05:01:06;;;;;;;8.67;7.33;;;3.50;93.80;;;;;;5026924;28;20194;-83
2021/12/12 05:03:41;;;;;;;8.53;7.03;;;3.50;93.70;;;;;;5021212;28;20314;-83
2021/12/12 05:06:11;;;;;;;8.87;7.33;;;3.50;93.60;;;;;;5021205;28;20296;-83
2021/12/12 05:08:44;;;;;;;11.70;7.80;;;3.50;93.60;;;;;;5024173;28;20237;-83
2021/12/12 05:11:18;;;;;;;9.53;7.13;;;3.50;93.50;;;;;;5040266;28;20206;-82
2021/12/12 05:13:51;;;;;;;9.40;7.43;;;3.50;93.50;;;;;;5016525;28;20578;-83
2021/12/12 05:16:24;;;;;;;8.77;7.27;;;3.50;93.70;;;;;;5026176;28;20224;-85
2021/12/12 05:19:04;;;;;;;8.90;7.43;;;3.50;93.70;;;;;;5019990;28;20592;-83
2021/12/12 05:21:34;;;;;;;9.20;7.60;;;3.40;93.90;;;;;;5026320;28;20207;-82
2021/12/12 05:24:05;;;;;;;8.27;7.07;;;3.30;93.80;;;;;;5027207;28;20227;-83
2021/12/12 05:26:35;;;;;;;9.27;7.60;;;3.20;94.10;;;;;;5012890;28;20207;-83
2021/12/12 05:29:04;;;;;;;9.67;7.73;;;3.10;94.70;;;;;;5018617;28;20238;-82
2021/12/12 05:31:33;;;;;;;9.13;7.00;;;3.20;94.30;;;;;;5024794;28;20206;-83
2021/12/12 05:34:02;;;;;;;9.13;7.33;;;3.20;94.10;;;;;;5027136;28;20234;-82
2021/12/12 05:36:30;;;;;;;9.00;7.27;;;3.10;94.20;;;;;;5032421;28;20662;-84
2021/12/12 05:38:58;;;;;;;10.13;6.60;;;3.10;94.20;;;;;;5030718;28;20709;-83
2021/12/12 05:41:25;;;;;;;10.67;7.33;;;3.00;94.30;;;;;;5024502;28;20198;-83
2021/12/12 05:43:56;;;;;;;7.37;6.00;;;3.10;94.10;;;;;;5028062;28;20234;-82
2021/12/12 05:46:24;;;;;;;8.47;6.77;;;3.10;94.20;;;;;;5025842;28;20202;-83
2021/12/12 05:48:53;;;;;;;8.47;6.53;;;3.10;94.20;;;;;;5029354;28;20237;-83
2021/12/12 05:51:22;;;;;;;8.93;6.43;;;3.20;94.10;;;;;;5018527;28;20214;-83
2021/12/12 05:53:50;;;;;;;7.77;6.33;;;3.10;93.70;;;;;;5025172;28;20566;-83
2021/12/12 05:56:17;;;;;;;8.13;6.53;;;3.10;93.60;;;;;;5026167;28;20261;-86
2021/12/12 05:58:45;;;;;;;7.67;6.27;;;3.10;93.70;;;;;;5017724;28;20733;-82
2021/12/12 06:01:13;;;;;;;8.33;6.37;;;3.10;93.80;;;;;;5031611;28;20203;-83
2021/12/12 06:03:43;;;;;;;7.33;6.40;;;3.10;93.80;;;;;;5031849;28;20230;-82
2021/12/12 06:06:14;;;;;;;9.57;6.53;;;3.20;94.00;;;;;;5027406;28;20202;-85
2021/12/12 06:08:44;;;;;;;8.53;6.10;;;3.30;93.50;;;;;;5022824;28;20223;-86
2021/12/12 06:11:13;;;;;;;8.97;7.20;;;3.40;93.30;;;;;;5030549;28;20198;-82
2021/12/12 06:13:41;;;;;;;7.07;6.00;;;3.50;92.90;;;;;;5028451;28;20595;-83
2021/12/12 06:16:09;;;;;;;7.77;6.40;;;3.40;92.80;;;;;;5024025;28;20206;-84
2021/12/12 06:18:37;;;;;;;7.50;6.60;;;3.30;92.70;;;;;;5040079;28;20244;-82
2021/12/12 06:21:05;;;;;;;8.73;6.57;;;3.30;92.80;;;;;;5041311;28;20692;-82
2021/12/12 06:23:32;;;;;;;8.47;6.43;;;3.20;93.00;;;;;;5047708;28;20240;-84
2021/12/12 06:26:01;;;;;;;7.87;6.60;;;3.10;93.50;;;;;;5050757;28;20216;-82
2021/12/12 06:28:32;;;;;;;7.70;5.87;;;3.10;93.50;;;;;;5045378;28;20229;-83
2021/12/12 06:30:59;;;;;;;7.60;6.20;;;3.10;92.90;;;;;;5032425;28;20191;-85
2021/12/12 06:33:26;;;;;;;7.73;5.97;;;3.10;92.90;;;;;;5046780;28;20591;-83
2021/12/12 06:35:54;;;;;;;7.73;6.23;;;3.00;92.90;;;;;;5012455;28;20194;-82
2021/12/12 06:38:22;;;;;;;7.27;6.13;;;3.10;93.20;;;;;;5030065;28;20251;-84
2021/12/12 06:40:51;;;;;;;6.80;5.83;;;3.10;92.90;;;;;;5029325;28;20191;-83
2021/12/12 06:43:22;;;;;;;7.53;5.63;;;3.20;92.80;;;;;;5025385;28;20270;-83
2021/12/12 06:45:50;;;;;;;8.00;5.93;;;3.20;92.70;;;;;;5032256;28;20198;-82
2021/12/12 06:48:18;;;;;;;7.53;5.60;;;3.30;92.70;;;;;;5025469;28;20222;-82
2021/12/12 06:50:47;;;;;;;7.93;6.07;;;3.30;92.80;;;;;;5025679;28;20225;-86
2021/12/12 06:53:17;;;;;;;8.10;6.17;;;3.40;92.40;;;;;;5030902;28;20245;-83
2021/12/12 06:55:46;;;;;;;7.17;6.07;;;3.40;92.50;;;;;;5023642;28;20646;-82
2021/12/12 06:58:14;;;;;;;7.10;5.90;;;3.40;92.30;;;;;;5026871;28;20748;-82
2021/12/12 07:00:45;;;;;;;7.57;5.77;;;3.30;92.10;;;;;;5025644;28;20209;-84
2021/12/12 07:03:13;;;;;;;7.67;6.03;;;3.10;92.50;;;;;;5030861;28;20222;-83
2021/12/12 07:05:41;;;;;;;7.47;5.23;;;3.10;92.60;;;;;;5020965;28;20199;-86
2021/12/12 07:08:07;;;;;;;7.57;5.87;;;3.20;93.10;;;;;;5028694;28;20221;-83
2021/12/12 07:10:35;;;;;;;8.17;5.53;;;3.30;92.80;;;;;;5022311;28;20214;-83
2021/12/12 07:13:03;;;;;;;6.80;5.43;;;3.30;92.50;;;;;;5032287;28;20594;-82
2021/12/12 07:15:33;;;;;;;5.77;5.17;;;3.30;92.30;;;;;;5026670;28;20242;-82
2021/12/12 07:18:07;;;;;;;5.97;5.10;;;3.40;91.60;;;;;;5025357;28;20231;-82
2021/12/12 07:20:34;;;;;;;7.37;5.30;;;3.40;91.20;;;;;;5028715;28;20207;-83
2021/12/12 07:23:04;;;;;;;6.70;4.93;;;3.40;90.80;;;;;;5028345;28;20222;-82
2021/12/12 07:25:32;;;;;;;6.67;5.30;;;3.50;90.60;;;;;;5028283;28;20194;-82
2021/12/12 07:28:00;;;;;;;6.33;5.53;;;3.50;90.70;;;;;;5030244;28;20233;-84
2021/12/12 07:30:30;;;;;;;6.50;5.23;;;3.40;90.70;;;;;;5034180;28;20695;-84
2021/12/12 07:32:58;;;;;;;6.70;5.13;;;3.40;91.20;;;;;;5033786;28;20237;-83
2021/12/12 07:35:28;;;;;;;5.20;4.17;;;3.40;91.10;;;;;;5029914;28;20234;-84
2021/12/12 07:37:56;;;;;;;6.37;4.57;;;3.50;91.00;;;;;;5033408;28;20230;-82
2021/12/12 07:40:23;;;;;;;6.00;5.00;;;3.60;90.40;;;;;;5035330;28;20198;-82
2021/12/12 07:42:52;;;;;;;6.43;5.03;;;3.60;90.30;;;;;;5034829;28;20671;-84
2021/12/12 07:45:20;;;;;;;4.97;4.40;;;3.50;90.30;;;;;;5035802;28;20210;-83
2021/12/12 07:47:48;;;;;;;5.27;4.37;;;3.50;90.40;;;;;;5020103;28;20548;-82
2021/12/12 07:50:19;;;;;;;6.37;5.03;;;3.60;90.20;;;;;;5036637;28;21026;-85
2021/12/12 07:52:48;;;;;;;5.37;4.30;;;3.60;90.00;;;;;;5035790;28;20202;-89
2021/12/12 07:55:15;;;;;;;7.13;5.20;;;3.70;88.20;;;;;;5036064;28;20596;-84
2021/12/12 07:57:42;;;;;;;5.73;4.87;;;3.60;88.10;;;;;;5035663;28;20195;-81
2021/12/12 08:00:14;;;;;;;5.43;4.60;;;3.50;89.00;;;;;;5022797;28;20206;-84
2021/12/12 08:02:42;;;;;;;5.53;4.80;;;3.60;88.10;;;;;;5030275;28;20205;-89
2021/12/12 08:05:10;;;;;;;5.40;4.73;;;3.50;88.10;;;;;;5029285;28;20566;-83
2021/12/12 08:07:40;;;;;;;6.40;4.97;;;3.40;90.00;;;;;;5033883;28;20202;-86
2021/12/12 08:10:11;;;;;;;6.00;4.90;;;3.40;90.00;;;;;;5009182;28;20593;-82
2021/12/12 08:12:39;;;;;;;6.53;5.40;;;3.30;90.00;;;;;;5032255;28;20199;-82
2021/12/12 08:15:09;;;;;;;5.70;5.03;;;3.40;90.20;;;;;;5030339;28;20230;-83
2021/12/12 08:17:36;;;;;;;8.23;5.77;;;3.40;90.20;;;;;;5028271;28;20211;-83
2021/12/12 08:20:06;;;;;;;5.57;4.97;;;3.50;90.50;;;;;;5033222;28;20205;-82
2021/12/12 08:22:35;;;;;;;5.70;4.93;;;3.60;90.00;;;;;;5024739;28;20218;-84
2021/12/12 08:25:04;;;;;;;6.43;5.73;;;3.70;89.50;;;;;;5033464;28;20217;-86
2021/12/12 08:27:32;;;;;;;6.17;5.40;;;3.70;89.60;;;;;;5032183;28;20940;-83
2021/12/12 08:30:02;;;;;;;5.93;5.33;;;3.70;88.20;;;;;;5029338;28;20194;-83
2021/12/12 08:32:29;;;;;;;6.47;5.03;;;3.80;88.20;;;;;;5032759;28;20230;-83
2021/12/12 08:35:05;;;;;;;5.53;4.93;;;3.80;88.20;;;;;;5030597;28;20349;-82
2021/12/12 08:37:32;;;;;;;7.87;5.60;;;4.00;88.30;;;;;;5029767;28;20199;-82
2021/12/12 08:39:59;;;;;;;5.57;4.97;;;4.00;88.30;;;;;;5025897;28;20213;-82
2021/12/12 08:42:27;;;;;;;6.00;5.37;;;4.00;88.30;;;;;;5028566;28;20208;-84
2021/12/12 08:44:57;;;;;;;6.57;5.30;;;4.00;88.30;;;;;;5029460;23;20246;-83
2021/12/12 08:47:27;;;;;;;7.30;5.50;;;4.20;88.50;;;;;;4999574;28;20200;-81
2021/12/12 08:57:34;;;;;;;6.20;5.20;;;4.00;84.40;;;;;;4996224;28;20188;-82
2021/12/12 09:00:08;;;;;;;6.27;5.50;;;4.00;88.30;;;;;;4982367;28;20215;-86
2021/12/12 09:02:35;;;;;;;6.43;5.70;;;4.10;87.50;;;;;;5000082;28;20204;-85
2021/12/12 09:05:06;;;;;;;5.70;4.90;;;4.20;87.00;;;;;;5001668;28;20200;-87
2021/12/12 09:07:38;;;;;;;7.13;5.97;;;4.30;86.30;;;;;;4995752;28;20196;-86
2021/12/12 09:10:10;;;;;;;6.00;5.30;;;4.80;84.30;;;;;;4993785;28;20200;-84
2021/12/12 09:12:40;;;;;;;6.10;5.50;;;5.90;76.80;;;;;;4980296;28;20191;-83
2021/12/12 09:17:59;;;;;;;5.63;5.07;;;7.20;64.50;;;;;;4980927;28;20249;-85
2021/12/12 09:21:07;;;;;;;5.70;5.10;;;7.90;61.40;;;;;;5005812;28;20215;-84
2021/12/12 09:23:38;;;;;;;5.45;4.95;;;9.60;44.60;;;;;;5004815;28;20238;-82
2021/12/12 09:26:08;;;;;;;5.72;5.13;;;10.40;37.20;;;;;;4996628;28;20621;-86
2021/12/12 09:28:43;;;;;;;5.60;5.10;;;11.20;33.80;;;;;;4996132;28;20234;-87
2021/12/12 09:31:15;;;;;;;6.05;5.18;;;11.80;32.10;;;;;;4993763;28;20710;-87
2021/12/12 09:33:51;;;;;;;5.88;5.28;;;11.70;32.80;;;;;;4997024;28;20239;-89
2021/12/12 09:36:24;;;;;;;6.35;5.75;;;12.50;30.60;;;;;;4977618;28;20219;-88
2021/12/12 09:42:57;;;;;;;6.50;5.90;;;11.60;31.60;;;;;;4985259;28;20682;-88
2021/12/12 09:45:54;;;;;;;6.13;5.53;;;11.00;34.30;;;;;;4974810;28;20255;-87
2021/12/12 09:52:21;;;;;;;6.20;5.65;;;11.00;33.00;;;;;;4962568;28;20633;-90
2021/12/12 09:54:56;;;;;;;6.53;5.93;;;10.40;34.30;;;;;;4974338;28;20696;-89
2021/12/12 09:57:26;;;;;;;6.65;6.05;;;9.80;38.00;;;;;;4983088;28;20223;-89
2021/12/12 10:00:10;;;;;;;6.47;5.85;;;9.00;40.30;;;;;;4985242;28;20258;-87
2021/12/12 10:03:04;;;;;;;6.68;5.70;;;8.50;47.10;;;;;;4981299;28;20201;-87
2021/12/12 10:06:13;;;;;;;6.00;5.40;;;7.80;50.00;;;;;;4981855;28;20203;-86
2021/12/12 10:08:57;;;;;;;6.72;5.70;;;7.20;54.50;;;;;;4971288;28;20200;-84
2021/12/12 10:11:42;;;;;;;6.07;5.45;;;6.80;59.70;;;;;;4982308;28;20209;-87
2021/12/12 10:17:04;;;;;;;6.30;5.47;;;6.40;66.90;;;;;;4977279;28;20222;-85
2021/12/12 10:19:58;;;;;;;6.95;5.63;;;6.20;67.00;;;;;;4976735;28;20296;-85
2021/12/12 10:22:34;;;;;;;5.93;5.25;;;6.10;70.10;;;;;;4975957;28;20211;-90
2021/12/12 10:25:07;;;;;;;6.38;5.28;;;5.80;70.60;;;;;;4966349;28;20224;-86
2021/12/12 10:27:58;;;;;;;6.45;5.78;;;5.90;74.40;;;;;;4957837;28;20208;-86
2021/12/12 10:34:00;;;;;;;5.38;4.78;;;7.20;67.90;;;;;;4961870;28;20684;-86
2021/12/12 10:36:33;;;;;;;5.35;4.82;;;8.10;54.70;;;;;;4972339;28;20220;-87
2021/12/12 10:39:07;;;;;;;5.10;4.60;;;8.80;49.90;;;;;;4971952;28;20228;-86
2021/12/12 10:41:39;;;;;;;4.82;4.43;;;9.40;45.60;;;;;;4991344;28;20208;-86
2021/12/12 10:44:37;;;;;;;5.03;4.25;;;9.50;43.20;;;;;;4975786;28;20236;-86
2021/12/12 10:47:28;;;;;;;5.20;4.70;;;9.60;41.20;;;;;;4980527;28;20673;-88
2021/12/12 10:50:07;;;;;;;4.25;3.92;;;9.80;41.50;;;;;;4963188;28;20228;-89
2021/12/12 10:52:39;;;;;;;4.10;3.80;;;10.30;37.10;;;;;;4972803;28;20200;-88
2021/12/12 10:55:10;;;;;;;4.68;4.28;;;10.50;36.20;;;;;;4974567;28;20709;-89
2021/12/12 10:57:41;;;;;;;8.45;7.57;;;10.10;36.30;;;;;;4976087;28;20207;-89
2021/12/12 11:00:37;;;;;;;4.00;3.65;;;9.30;41.20;;;;;;4970358;28;20200;-87
2021/12/12 11:09:29;;;;;;;3.75;3.45;;;7.90;46.10;;;;;;4981068;28;20768;-87
2021/12/12 11:12:02;;;;;;;8.73;7.07;;;7.20;54.60;;;;;;4982225;28;20286;-92
2021/12/12 11:14:32;;;;;;;5.65;4.93;;;7.00;56.80;;;;;;4992971;28;20760;-88
2021/12/12 11:17:05;;;;;;;4.45;4.05;;;6.80;56.50;;;;;;4994407;28;20660;-88
2021/12/12 11:19:39;;;;;;;4.45;4.05;;;6.70;58.90;;;;;;4975393;28;20603;-88
2021/12/12 11:22:14;;;;;;;4.45;3.97;;;6.60;59.40;;;;;;4972720;28;20227;-88
2021/12/12 11:24:46;;;;;;;4.13;3.73;;;6.40;64.00;;;;;;4982625;28;20227;-89
2021/12/12 11:27:18;;;;;;;4.38;3.97;;;6.20;67.30;;;;;;4975533;28;20204;-89
2021/12/12 11:29:51;;;;;;;4.77;4.27;;;6.30;69.80;;;;;;4976157;28;20232;-90
2021/12/12 11:32:25;;;;;;;4.20;3.80;;;6.20;71.00;;;;;;4974931;28;20208;-90
2021/12/12 11:34:56;;;;;;;4.30;3.90;;;6.20;71.00;;;;;;4970860;28;20231;-89
2021/12/12 11:37:32;;;;;;;4.20;3.80;;;6.20;71.00;;;;;;4975018;28;20684;-90
2021/12/12 11:40:05;;;;;;;4.20;3.50;;;6.30;71.10;;;;;;4967079;28;20228;-88
2021/12/12 11:42:38;;;;;;;3.27;2.97;;;6.30;68.10;;;;;;4973150;28;20625;-89
2021/12/12 11:45:10;;;;;;;3.60;3.10;;;6.30;68.60;;;;;;4975976;28;20605;-93
2021/12/12 11:47:54;;;;;;;3.63;3.07;;;6.30;62.70;;;;;;4976278;28;20213;-91
2021/12/12 11:50:29;;;;;;;2.70;2.50;;;6.30;60.80;;;;;;4989186;28;20236;-91
2021/12/12 11:53:01;;;;;;;2.83;2.60;;;6.20;63.80;;;;;;4972083;28;20223;-91
2021/12/12 11:55:34;;;;;;;3.00;2.70;;;6.40;62.10;;;;;;4972250;28;20232;-93
2021/12/12 11:58:10;;;;;;;3.40;2.93;;;6.50;60.30;;;;;;4972317;28;20220;-93
2021/12/12 12:00:41;;;;;;;3.50;3.17;;;6.50;60.90;;;;;;4977053;28;20208;-91
2021/12/12 12:06:32;;;;;;;3.80;3.50;;;6.40;67.90;;;;;;4969736;28;20201;-89
2021/12/12 12:09:19;;;;;;;3.58;3.28;;;6.60;63.00;;;;;;4968940;28;20784;-89
2021/12/12 12:15:12;;;;;;;3.72;3.42;;;6.60;67.70;;;;;;4967851;28;20224;-90
2021/12/12 12:17:56;;;;;;;3.95;3.58;;;6.60;67.50;;;;;;4974710;28;20196;-89
2021/12/12 12:20:37;;;;;;;4.30;3.90;;;6.60;65.90;;;;;;4978406;28;20200;-87
2021/12/12 12:23:18;;;;;;;3.60;3.30;;;6.70;66.90;;;;;;4974165;28;20623;-90
2021/12/12 12:28:42;;;;;;;3.80;3.40;;;6.90;60.30;;;;;;4961660;28;20232;-90
2021/12/12 12:31:43;;;;;;;3.65;3.25;;;6.90;60.70;;;;;;4973988;28;20251;-90
2021/12/12 12:34:45;;;;;;;3.75;3.35;;;7.00;60.70;;;;;;4981653;28;20228;-89
2021/12/12 12:37:46;;;;;;;3.40;3.10;;;6.80;60.90;;;;;;4967350;28;20266;-89
2021/12/12 12:40:53;;;;;;;3.28;2.97;;;6.60;60.20;;;;;;4968194;28;20213;-93
2021/12/12 12:46:44;;;;;;;3.83;3.30;;;6.60;58.40;;;;;;5040501;22;20233;-91
2021/12/12 12:49:48;;;;;;;2.93;2.73;;;6.40;61.60;;;;;;5033164;28;20763;-92
2021/12/12 12:52:46;;;;;;;2.90;2.60;;;6.40;59.10;;;;;;5026297;28;20215;-91
2021/12/12 12:55:55;;;;;;;3.07;2.77;;;6.40;59.10;;;;;;5029263;28;20207;-92
2021/12/12 12:58:43;;;;;;;3.43;2.90;;;6.40;59.50;;;;;;4993777;28;20230;-93
2021/12/12 13:01:16;;;;;;;2.87;2.67;;;6.40;58.30;;;;;;5030158;28;20594;-88
2021/12/12 13:03:54;;;;;;;3.10;2.80;;;6.50;58.90;;;;;;5029773;28;20222;-93
2021/12/12 13:06:58;;;;;;;2.90;2.60;;;6.60;60.40;;;;;;5034301;28;20563;-91
2021/12/12 13:12:59;;;;;;;3.07;2.77;;;6.50;59.00;;;;;;5024852;28;20210;-91
2021/12/12 13:18:48;;;;;;;3.00;2.70;;;6.40;57.60;;;;;;5028402;28;20227;-90
2021/12/12 13:21:28;;;;;;;4.73;2.97;;;6.50;59.50;;;;;;5017060;28;20587;-91
2021/12/12 13:24:10;;;;;;;2.40;2.20;;;6.50;58.20;;;;;;5014917;28;20225;-93
2021/12/12 13:27:15;;;;;;;2.73;2.47;;;6.50;57.10;;;;;;5033892;28;20297;-91
2021/12/12 13:30:05;;;;;;;2.87;2.60;;;6.50;57.30;;;;;;5033367;28;20226;-91
2021/12/12 13:32:45;;;;;;;2.70;2.47;;;6.50;57.60;;;;;;5032740;28;20208;-89
2021/12/12 13:35:20;;;;;;;3.57;2.50;;;6.50;57.90;;;;;;5028861;28;20252;-89
2021/12/12 13:38:01;;;;;;;2.83;2.53;;;6.40;58.70;;;;;;5030178;28;20208;-89
2021/12/12 13:40:37;;;;;;;3.10;2.53;;;6.20;63.20;;;;;;5036250;28;20207;-88
2021/12/12 13:43:18;;;;;;;2.43;2.20;;;6.10;59.50;;;;;;5034128;28;20292;-90
2021/12/12 13:45:54;;;;;;;2.43;2.23;;;6.10;60.90;;;;;;5024575;28;20233;-91
2021/12/12 13:48:36;;;;;;;2.70;2.30;;;6.10;61.30;;;;;;5017786;28;20651;-90
2021/12/12 13:51:23;;;;;;;2.47;2.27;;;6.00;57.60;;;;;;5020555;28;20182;-90
2021/12/12 13:56:53;;;;;;;3.60;2.30;;;6.00;59.20;;;;;;5015100;28;20215;-89
2021/12/12 13:59:31;;;;;;;2.40;2.20;;;5.90;61.10;;;;;;5022800;28;20586;-90
2021/12/12 14:02:01;;;;;;;2.77;2.37;;;6.00;63.00;;;;;;5014112;28;20199;-92
2021/12/12 14:07:31;;;;;;;2.83;2.10;;;6.10;65.30;;;;;;5016706;28;20662;-90
2021/12/12 14:10:01;;;;;;;3.30;2.07;;;6.10;64.90;;;;;;4987959;28;20695;-93
2021/12/12 14:12:31;;;;;;;2.20;2.00;;;6.00;63.40;;;;;;4997002;28;20219;-93
2021/12/12 14:15:49;;;;;;;2.10;1.90;;;6.00;62.40;;;;;;5014868;28;20225;-89
2021/12/12 14:21:02;;;;;;;5.30;3.97;;;6.20;58.70;;;;;;4973753;28;20193;-90
2021/12/12 14:23:32;;;;;;;2.03;1.70;;;6.20;59.00;;;;;;4938907;28;20256;-89
2021/12/12 14:26:19;;;;;;;2.37;1.87;;;6.30;59.30;;;;;;4938563;29;20205;-88
2021/12/12 14:28:51;;;;;;;4.07;3.17;;;6.30;58.70;;;;;;4937453;28;20276;-89
2021/12/12 14:31:44;;;;;;;2.70;2.00;;;6.40;59.30;;;;;;4965724;28;20610;-88
2021/12/12 14:34:16;;;;;;;3.33;1.77;;;6.20;57.50;;;;;;4957684;28;20224;-92
2021/12/12 14:37:30;;;;;;;3.13;1.87;;;6.10;59.00;;;;;;5000870;28;20227;-88
2021/12/12 14:40:03;;;;;;;2.30;2.10;;;6.00;60.30;;;;;;4993548;28;20223;-90